Time;durP1;ratioP1;P1;durP2;ratioP2;P2;SDS_P1;SDS_P2;PMS_P1;PMS_P2;Temp;Humidity;BMP_temperature;BMP_pressure;BME280_temperature;BME280_humidity;BME280_pressure;Samples;Min_cycle;Max_cycle;Signal;HPM_P1;HPM_P2
2021/12/16 00:10:32;;;;;;;9.75;6.63;;;12.40;67.60;;;10.89;69.04;102619.41;8321513;28;20030;-77
2021/12/16 00:33:41;;;;;;;10.93;7.70;;;12.30;66.90;;;10.86;69.81;102620.34;8317952;28;20124;-77
2021/12/16 00:38:04;;;;;;;13.50;7.78;;;12.40;66.90;;;10.90;69.15;102623.72;8314422;28;20132;-78
2021/12/16 00:56:02;;;;;;;12.10;8.63;;;12.40;66.90;;;10.90;69.00;102616.72;8314254;28;20125;-78
2021/12/16 01:00:30;;;;;;;10.95;7.60;;;12.40;66.90;;;10.90;69.77;102624.56;8301895;28;20121;-76
2021/12/16 01:05:13;;;;;;;13.35;9.13;;;12.50;66.90;;;10.97;69.94;102633.97;8317571;28;20124;-75
2021/12/16 01:45:36;;;;;;;13.13;9.27;;;12.50;66.50;;;11.00;69.06;102644.34;8311561;28;20469;-76
2021/12/16 01:56:40;;;;;;;14.85;9.38;;;12.50;66.60;;;11.03;69.30;102659.94;8318802;28;20482;-78
2021/12/16 02:01:18;;;;;;;14.27;9.25;;;12.40;66.50;;;10.95;69.36;102647.97;8305090;28;20121;-76
2021/12/16 02:06:01;;;;;;;13.23;8.90;;;12.50;66.40;;;11.01;69.17;102655.66;8311225;28;20124;-75
2021/12/16 02:10:32;;;;;;;13.93;8.65;;;12.50;66.60;;;10.96;69.54;102641.84;8309749;28;20040;-75
2021/12/16 02:29:15;;;;;;;10.90;7.57;;;12.50;66.60;;;10.99;69.54;102642.66;8313246;28;20121;-76
2021/12/16 02:38:07;;;;;;;13.18;8.10;;;12.50;66.50;;;11.06;69.15;102661.63;8315069;28;20144;-77
2021/12/16 02:42:53;;;;;;;11.77;8.18;;;12.50;66.40;;;11.00;69.52;102654.81;8304549;28;20140;-77
2021/12/16 02:51:57;;;;;;;9.45;6.28;;;12.40;66.50;;;10.92;69.38;102646.31;8290178;28;19924;-76
2021/12/16 02:56:19;;;;;;;9.48;6.65;;;12.50;66.30;;;10.95;69.27;102651.44;8296018;28;20120;-75
2021/12/16 03:00:47;;;;;;;8.60;6.57;;;12.40;66.40;;;10.92;69.17;102654.16;8316315;28;20467;-76
2021/12/16 03:05:10;;;;;;;9.95;6.53;;;12.40;66.50;;;10.91;68.99;102662.91;8306232;28;20121;-77
2021/12/16 03:14:39;;;;;;;9.57;6.75;;;12.40;66.70;;;10.82;69.58;102644.81;8306007;28;20488;-77
2021/12/16 03:19:16;;;;;;;7.95;5.70;;;12.30;66.70;;;10.81;69.00;102637.88;8316979;28;20130;-80
2021/12/16 03:23:53;;;;;;;6.50;5.55;;;12.30;66.80;;;10.89;69.19;102659.44;8300836;28;20145;-78
2021/12/16 03:28:33;;;;;;;7.03;5.07;;;12.30;66.90;;;10.80;68.95;102637.03;8316402;28;20125;-80
2021/12/16 03:33:32;;;;;;;5.63;5.05;;;12.30;66.90;;;10.60;69.14;102611.38;8302777;28;20473;-81
2021/12/16 03:38:04;;;;;;;6.63;5.60;;;12.30;66.80;;;10.81;69.61;102656.19;8312809;28;20109;-79
2021/12/16 03:42:52;;;;;;;6.75;5.18;;;12.30;66.70;;;10.79;69.17;102657.97;8318111;28;20124;-79
2021/12/16 03:47:16;;;;;;;7.45;5.68;;;12.30;66.70;;;10.81;69.45;102669.25;8322675;28;20128;-78
2021/12/16 03:51:47;;;;;;;6.00;4.88;;;12.30;66.80;;;10.76;69.61;102660.66;8314746;28;20052;-77
2021/12/16 03:56:12;;;;;;;8.13;5.20;;;12.20;66.60;;;10.78;69.24;102661.47;8295581;28;20132;-75
2021/12/16 04:01:04;;;;;;;8.93;5.13;;;12.30;66.60;;;10.69;69.09;102640.78;8304221;28;20132;-78
2021/12/16 04:05:27;;;;;;;7.28;5.35;;;12.30;66.40;;;10.75;69.02;102666.78;8304514;28;20113;-78
2021/12/16 04:09:51;;;;;;;8.77;5.13;;;12.30;66.50;;;10.80;69.06;102672.72;8308633;28;20042;-79
2021/12/16 04:14:19;;;;;;;6.35;4.30;;;12.20;66.30;;;10.83;69.26;102683.13;8305735;28;20108;-79
2021/12/16 04:18:42;;;;;;;5.78;4.60;;;12.20;66.20;;;10.80;68.67;102678.84;8316737;28;20128;-77
2021/12/16 04:23:08;;;;;;;8.15;4.43;;;12.30;66.30;;;10.79;68.88;102671.88;8320360;28;20193;-76
2021/12/16 04:27:33;;;;;;;7.40;4.60;;;12.20;66.10;;;10.58;69.27;102641.06;8294791;28;20124;-80
2021/12/16 04:31:57;;;;;;;6.10;4.35;;;12.20;66.00;;;10.75;69.35;102670.25;8315430;28;20056;-78
2021/12/16 04:36:20;;;;;;;7.13;4.90;;;12.20;66.00;;;10.77;68.82;102678.03;8291007;28;20558;-78
2021/12/16 04:40:45;;;;;;;6.53;4.38;;;12.20;66.00;;;10.79;68.89;102689.31;8291604;28;20041;-77
2021/12/16 04:45:10;;;;;;;4.75;4.15;;;12.20;66.00;;;10.77;69.16;102688.50;8298567;28;20132;-77
2021/12/16 04:49:34;;;;;;;6.18;4.57;;;12.20;65.90;;;10.78;68.85;102685.84;8319386;28;20041;-79
2021/12/16 04:53:56;;;;;;;4.72;4.10;;;12.20;65.90;;;10.77;69.17;102678.91;8310652;28;20128;-77
2021/12/16 04:58:19;;;;;;;6.60;4.68;;;12.20;65.80;;;10.70;69.41;102682.56;8295039;28;20125;-77
2021/12/16 05:02:41;;;;;;;6.78;4.85;;;12.20;65.80;;;10.83;68.92;102704.03;8338209;22;20134;-82
2021/12/16 05:07:22;;;;;;;7.32;4.90;;;12.30;65.80;;;10.78;68.95;102698.06;8484821;27;20106;-82
2021/12/16 05:12:12;;;;;;;5.20;4.53;;;12.30;65.80;;;10.82;69.07;102710.16;8477900;27;20052;-82
2021/12/16 05:16:34;;;;;;;9.82;4.63;;;12.30;65.80;;;10.82;69.26;102710.16;8468224;27;20118;-83
2021/12/16 05:20:58;;;;;;;6.70;5.07;;;12.30;65.70;;;10.81;68.68;102713.66;8444352;27;20146;-82
2021/12/16 05:29:56;;;;;;;5.22;4.35;;;12.30;65.60;;;10.80;69.31;102718.03;8456934;27;20378;-82
2021/12/16 05:34:19;;;;;;;7.88;4.78;;;12.30;65.60;;;10.76;68.82;102718.16;8477927;27;20122;-82
2021/12/16 05:38:42;;;;;;;6.07;4.85;;;12.30;65.70;;;10.77;68.93;102714.63;8462647;27;20118;-82
2021/12/16 05:43:11;;;;;;;6.55;4.70;;;12.30;65.60;;;10.78;69.23;102722.44;8452059;27;20474;-82
2021/12/16 05:47:34;;;;;;;6.85;4.32;;;12.30;65.60;;;10.76;68.91;102718.16;8461071;28;20122;-82
2021/12/16 05:51:55;;;;;;;5.05;4.55;;;12.20;65.60;;;10.74;69.00;102719.94;8462384;28;20406;-88
2021/12/16 05:56:18;;;;;;;9.30;5.00;;;12.30;65.80;;;10.80;68.87;102738.06;8436094;28;20460;-82
2021/12/16 06:00:42;;;;;;;6.63;4.97;;;12.30;65.80;;;10.77;68.75;102735.53;8470538;28;20451;-89
2021/12/16 06:05:06;;;;;;;6.50;4.85;;;12.30;65.90;;;10.69;69.61;102742.69;8425066;28;20454;-81
2021/12/16 06:09:28;;;;;;;6.80;4.90;;;12.20;66.00;;;10.71;69.41;102751.38;8473280;28;20339;-81
2021/12/16 06:14:12;;;;;;;8.23;4.60;;;12.20;66.10;;;10.70;68.84;102749.66;8464669;28;20507;-82
2021/12/16 06:27:41;;;;;;;6.30;4.88;;;12.20;66.90;;;10.68;68.65;102764.50;8466889;28;20468;-79
2021/12/16 06:32:04;;;;;;;6.05;5.40;;;12.10;66.20;;;10.61;68.88;102769.88;8481933;27;20045;-81
2021/12/16 06:36:26;;;;;;;6.78;4.90;;;12.10;66.40;;;10.57;68.48;102762.97;8473453;28;20034;-80
2021/12/16 06:40:48;;;;;;;6.63;4.97;;;12.10;66.40;;;10.56;69.05;102773.50;8467366;28;20147;-86
2021/12/16 06:45:36;;;;;;;6.00;4.72;;;12.10;66.50;;;10.58;69.04;102771.69;8463928;27;20193;-86
2021/12/16 06:49:58;;;;;;;7.55;5.13;;;12.10;66.50;;;10.54;68.95;102776.13;8457986;27;20395;-87
2021/12/16 06:54:28;;;;;;;5.13;4.15;;;12.00;66.50;;;10.53;68.77;102773.53;8478801;27;20035;-82
2021/12/16 06:59:05;;;;;;;5.07;4.40;;;12.00;66.50;;;10.60;68.92;102775.13;8461013;27;20111;-82
2021/12/16 07:03:38;;;;;;;7.80;5.05;;;11.90;66.40;;;10.54;68.42;102770.91;8479489;27;20110;-81
2021/12/16 07:08:06;;;;;;;7.40;5.03;;;12.00;66.50;;;10.52;69.46;102783.13;8486173;27;20130;-80
2021/12/16 07:12:35;;;;;;;6.18;4.55;;;12.00;66.60;;;10.49;69.27;102775.34;8465612;27;20139;-80
2021/12/16 07:16:58;;;;;;;7.57;5.20;;;12.00;67.30;;;10.61;68.72;102811.69;8468604;27;20027;-82
2021/12/16 07:21:19;;;;;;;5.60;4.80;;;12.00;66.60;;;10.55;68.71;102801.34;8481637;27;20044;-79
2021/12/16 07:25:41;;;;;;;6.57;4.55;;;12.00;66.60;;;10.59;68.87;102805.63;8478619;27;20116;-80
2021/12/16 07:30:07;;;;;;;7.65;5.10;;;12.10;66.80;;;10.59;68.95;102816.06;8483571;27;20036;-79
2021/12/16 07:34:30;;;;;;;6.78;5.05;;;12.10;66.80;;;10.58;69.01;102803.03;8475952;27;20111;-82
2021/12/16 07:38:53;;;;;;;6.63;4.90;;;12.10;66.80;;;10.62;69.21;102831.69;8442385;27;20126;-79
2021/12/16 07:43:42;;;;;;;6.50;5.07;;;12.10;66.80;;;10.63;69.24;102853.44;8482395;27;20118;-81
2021/12/16 07:48:04;;;;;;;7.63;4.50;;;12.00;66.80;;;10.61;69.20;102866.53;8459510;27;20459;-81
2021/12/16 07:52:26;;;;;;;6.30;4.72;;;12.10;66.80;;;10.63;69.13;102871.72;8487161;27;20038;-80
2021/12/16 07:56:51;;;;;;;7.68;5.60;;;12.00;66.80;;;10.61;69.35;102863.94;8485870;27;20126;-81
2021/12/16 08:01:13;;;;;;;5.00;4.50;;;12.10;66.80;;;10.63;69.08;102869.09;8473389;27;20114;-80
2021/12/16 08:05:39;;;;;;;6.70;4.97;;;12.10;66.80;;;10.68;69.02;102872.50;8456190;27;20041;-84
2021/12/16 08:10:03;;;;;;;6.57;4.97;;;12.10;66.80;;;10.57;68.60;102849.19;8443751;27;20444;-82
2021/12/16 08:14:25;;;;;;;5.82;4.90;;;12.10;66.80;;;10.61;69.06;102866.53;8469655;27;20027;-83
2021/12/16 08:18:47;;;;;;;7.85;4.65;;;12.10;66.90;;;10.66;69.26;102863.81;8465426;27;20114;-83
2021/12/16 08:23:09;;;;;;;6.60;4.32;;;12.10;66.90;;;10.67;69.41;102873.38;8458477;27;20177;-82
2021/12/16 08:27:33;;;;;;;6.22;4.20;;;12.10;66.90;;;10.60;69.29;102853.50;8457997;27;20034;-82
2021/12/16 08:31:56;;;;;;;7.13;4.47;;;12.10;67.00;;;10.60;69.08;102859.56;8450940;27;20364;-81
2021/12/16 08:36:18;;;;;;;5.57;4.38;;;12.10;67.00;;;10.65;69.08;102871.69;8454199;27;20552;-85
2021/12/16 08:40:43;;;;;;;5.30;4.32;;;12.10;67.00;;;10.65;69.11;102879.53;8450415;27;20130;-88
2021/12/16 08:45:12;;;;;;;6.38;3.97;;;12.10;67.00;;;10.69;69.53;102895.09;8463300;27;20118;-80
2021/12/16 08:49:35;;;;;;;6.78;5.32;;;12.10;67.00;;;10.65;69.30;102888.22;8468270;27;20431;-87
2021/12/16 08:53:57;;;;;;;5.50;3.55;;;12.10;67.00;;;10.71;69.19;102893.31;8439625;27;20122;-81
2021/12/16 08:58:25;;;;;;;6.35;4.20;;;12.20;67.10;;;10.70;69.02;102907.28;8462685;27;20506;-82
2021/12/16 09:02:47;;;;;;;3.90;3.50;;;12.20;67.10;;;10.68;69.72;102901.22;8451286;27;20169;-85
2021/12/16 09:07:10;;;;;;;4.15;3.55;;;12.20;67.10;;;10.72;68.92;102921.19;8447214;27;20181;-82
2021/12/16 09:11:39;;;;;;;6.60;4.53;;;12.20;67.00;;;10.63;69.18;102913.53;8448303;27;20570;-82
2021/12/16 09:16:06;;;;;;;6.43;4.45;;;12.20;67.00;;;10.76;69.47;102937.66;8431953;27;20114;-82
2021/12/16 09:20:29;;;;;;;4.65;4.22;;;12.20;67.00;;;10.73;69.05;102928.13;8452249;27;20110;-83
2021/12/16 09:24:54;;;;;;;4.47;3.65;;;12.30;67.20;;;10.71;69.14;102932.53;8457610;27;20043;-82
2021/12/16 09:29:16;;;;;;;4.57;3.60;;;12.20;67.10;;;10.74;69.47;102926.38;8455881;27;20114;-83
2021/12/16 09:33:48;;;;;;;4.72;3.50;;;12.20;67.10;;;10.80;69.54;102934.97;8472727;27;20499;-82
2021/12/16 09:38:13;;;;;;;3.80;3.10;;;12.30;67.20;;;10.78;69.10;102938.50;8442103;27;20444;-82
2021/12/16 09:42:35;;;;;;;6.77;3.47;;;12.30;67.20;;;10.81;69.06;102941.03;8429495;22;20040;-82
2021/12/16 09:47:00;;;;;;;3.85;3.38;;;12.20;67.20;;;10.84;69.39;102964.50;8356704;28;20054;-82
2021/12/16 09:51:28;;;;;;;5.57;3.63;;;12.30;67.30;;;10.81;69.40;102957.59;8388110;28;20040;-82
2021/12/16 09:55:58;;;;;;;3.90;3.15;;;12.30;67.20;;;10.81;69.52;102959.34;8358098;28;20124;-82
2021/12/16 10:00:28;;;;;;;3.65;3.22;;;12.30;67.20;;;10.82;69.31;102953.22;8349632;28;20603;-81
2021/12/16 10:04:51;;;;;;;3.53;3.17;;;12.30;67.20;;;10.82;68.89;102938.38;8325163;28;20127;-83
2021/12/16 10:09:13;;;;;;;2.95;2.70;;;12.30;67.20;;;10.87;69.66;102948.75;8331460;28;20135;-82
2021/12/16 10:14:19;;;;;;;4.95;3.50;;;12.30;67.20;;;10.91;69.56;102946.94;8355132;28;20478;-82
2021/12/16 10:18:24;;;;;;;4.00;3.17;;;12.30;67.20;;;10.86;69.17;102947.03;8358023;28;20585;-82
2021/12/16 10:22:46;;;;;;;4.07;3.55;;;12.40;67.20;;;10.87;69.17;102946.13;8344814;28;20179;-82
2021/12/16 10:27:10;;;;;;;3.72;3.03;;;12.30;67.20;;;10.95;69.74;102948.59;8357928;28;20040;-83
2021/12/16 10:31:35;;;;;;;5.20;3.70;;;12.40;67.30;;;10.93;69.00;102955.59;8357538;28;20648;-82
2021/12/16 10:36:21;;;;;;;3.30;3.00;;;12.40;67.30;;;10.94;69.08;102947.75;8339417;28;20041;-82
2021/12/16 10:40:49;;;;;;;3.40;2.97;;;12.40;67.30;;;10.99;69.77;102956.34;8325205;28;20128;-82
2021/12/16 10:45:32;;;;;;;2.85;2.65;;;12.50;67.30;;;11.00;69.50;102959.81;8359055;28;20059;-82
2021/12/16 10:49:54;;;;;;;3.75;2.63;;;12.50;67.30;;;10.98;69.71;102949.38;8346949;28;20490;-82
2021/12/16 10:54:38;;;;;;;3.10;2.80;;;12.50;67.30;;;11.02;69.08;102969.34;8361811;28;20119;-82
2021/12/16 10:59:21;;;;;;;2.53;2.35;;;12.50;67.30;;;11.05;69.71;102966.69;8354786;28;20033;-82
2021/12/16 11:03:45;;;;;;;2.40;2.20;;;12.50;67.20;;;11.06;69.48;102972.75;8376204;22;20048;-78
2021/12/16 11:08:09;;;;;;;2.70;2.50;;;12.60;67.30;;;11.06;69.26;102963.16;8368128;28;20028;-76
2021/12/16 11:12:54;;;;;;;2.90;2.28;;;12.50;67.80;;;11.10;69.50;102963.09;8387684;28;20033;-76
2021/12/16 11:17:18;;;;;;;2.42;1.92;;;12.60;67.10;;;11.15;69.15;102972.59;8390462;28;20055;-79
2021/12/16 11:21:39;;;;;;;2.33;2.13;;;12.60;67.00;;;11.08;69.09;102956.16;8381148;28;20525;-76
2021/12/16 11:26:16;;;;;;;2.50;2.20;;;12.70;67.00;;;11.09;68.92;102962.22;8355966;28;20042;-74
2021/12/16 11:31:14;;;;;;;2.25;2.03;;;12.60;66.80;;;11.08;69.59;102958.75;8358896;28;20040;-77
2021/12/16 11:36:05;;;;;;;1.85;1.75;;;12.60;66.60;;;11.17;68.93;102973.38;8378129;28;20032;-76
2021/12/16 11:40:27;;;;;;;1.92;1.83;;;12.70;66.50;;;11.13;69.32;102963.91;8386934;28;20043;-76
2021/12/16 11:44:48;;;;;;;2.72;1.52;;;12.70;66.60;;;11.08;68.95;102934.38;8402442;28;20501;-78
2021/12/16 11:49:26;;;;;;;1.50;1.40;;;12.70;66.60;;;11.21;69.49;102961.97;8393860;28;20036;-76
2021/12/16 11:53:58;;;;;;;1.45;1.35;;;12.70;66.30;;;11.21;69.26;102961.13;8382585;28;20135;-78
2021/12/16 11:58:30;;;;;;;1.58;1.48;;;12.70;66.30;;;11.22;69.00;102955.84;8376352;28;20032;-79
2021/12/16 12:03:18;;;;;;;1.48;1.20;;;12.70;66.00;;;11.24;69.18;102959.28;8384444;28;20040;-78
2021/12/16 12:07:43;;;;;;;1.48;1.38;;;12.80;66.00;;;11.33;69.34;102979.16;8354562;28;20123;-81
2021/12/16 12:12:06;;;;;;;2.05;1.90;;;12.80;65.80;;;11.36;69.52;102980.84;8366906;28;20043;-88
2021/12/16 12:16:34;;;;;;;1.52;1.40;;;12.90;65.60;;;11.23;69.41;102972.38;8395473;28;20126;-79
2021/12/16 12:21:32;;;;;;;1.40;1.30;;;12.90;65.50;;;11.42;69.11;103006.84;8360843;28;20167;-77
2021/12/16 12:25:53;;;;;;;1.33;1.23;;;12.90;64.60;;;11.41;69.34;103006.00;8374606;28;20115;-78
2021/12/16 12:30:17;;;;;;;0.98;0.98;;;12.80;64.70;;;11.39;68.72;103010.41;8383537;28;20041;-77
2021/12/16 12:34:46;;;;;;;1.60;1.50;;;12.90;64.50;;;11.38;69.03;103005.22;8366291;28;20038;-76
2021/12/16 12:39:15;;;;;;;2.28;1.77;;;12.90;64.40;;;11.35;68.98;102994.81;8382512;28;20047;-81
2021/12/16 12:43:37;;;;;;;1.75;1.65;;;12.90;64.10;;;11.26;68.60;102977.56;8361715;28;20124;-82
2021/12/16 12:48:01;;;;;;;1.90;1.80;;;12.70;64.10;;;11.35;69.06;102984.38;8364458;28;20133;-79
2021/12/16 12:52:26;;;;;;;1.70;1.60;;;12.80;64.10;;;11.28;69.07;102970.53;8371386;28;20057;-76
2021/12/16 12:56:50;;;;;;;1.70;1.60;;;12.80;64.40;;;11.17;68.49;102960.31;8368781;28;20039;-77
2021/12/16 13:01:11;;;;;;;1.65;1.55;;;12.80;64.50;;;11.29;68.70;102974.91;8373967;28;20054;-76
2021/12/16 13:05:34;;;;;;;2.17;1.73;;;12.90;64.70;;;11.35;68.78;102969.53;8380175;28;20435;-81
2021/12/16 13:09:56;;;;;;;1.77;1.58;;;12.90;64.50;;;11.35;68.53;102966.06;8353504;28;20285;-80
2021/12/16 13:14:23;;;;;;;1.45;1.30;;;12.80;64.30;;;11.43;68.36;102967.59;8379268;28;20044;-77
2021/12/16 13:23:39;;;;;;;1.20;1.20;;;12.80;63.90;;;11.45;68.70;102967.53;8374222;28;20127;-78
2021/12/16 13:28:06;;;;;;;1.42;1.13;;;12.90;64.00;;;11.34;68.93;102952.13;8388268;28;20146;-75
2021/12/16 13:32:39;;;;;;;0.90;0.80;;;12.90;63.90;;;11.41;68.88;102951.06;8394910;28;20115;-81
2021/12/16 13:37:21;;;;;;;2.15;1.30;;;12.90;63.80;;;11.44;68.49;102953.59;8356677;28;20499;-79
2021/12/16 13:42:15;;;;;;;1.23;1.13;;;12.90;63.50;;;11.43;68.72;102951.03;8391446;28;20032;-79
2021/12/16 13:47:17;;;;;;;1.40;1.15;;;12.90;63.50;;;11.34;68.75;102964.31;8386613;28;20132;-77
2021/12/16 14:01:32;;;;;;;1.65;1.40;;;12.90;63.60;;;11.35;68.66;102987.84;8394315;28;20139;-78
2021/12/16 14:06:21;;;;;;;1.40;1.30;;;12.90;63.40;;;11.29;68.25;103001.91;8395061;28;20040;-77
2021/12/16 14:10:57;;;;;;;1.30;1.20;;;12.80;63.30;;;11.27;67.99;103018.53;8370706;28;20524;-75
2021/12/16 14:15:43;;;;;;;2.00;1.30;;;12.80;63.10;;;11.25;68.11;103004.63;8371681;28;20029;-76
2021/12/16 14:25:39;;;;;;;1.27;1.20;;;12.70;63.10;;;11.22;67.99;103033.44;8398218;28;20112;-75
2021/12/16 14:35:27;;;;;;;2.20;1.48;;;12.70;63.20;;;11.10;67.79;103025.84;8397703;28;20050;-77
2021/12/16 14:40:36;;;;;;;1.73;1.20;;;12.60;63.20;;;11.03;68.14;103010.28;8390403;28;20046;-77
2021/12/16 14:45:25;;;;;;;1.60;1.20;;;12.50;63.00;;;11.04;67.82;103017.25;8390868;28;20560;-76
2021/12/16 14:49:50;;;;;;;3.17;1.70;;;12.60;63.10;;;10.98;67.50;103024.34;8399864;28;20131;-77
2021/12/16 14:54:13;;;;;;;1.48;1.35;;;12.50;63.10;;;10.92;67.84;103050.63;8373338;28;20055;-75
2021/12/16 14:58:38;;;;;;;1.90;1.27;;;12.50;63.10;;;10.95;67.82;103064.47;8398492;28;20358;-76
2021/12/16 15:03:12;;;;;;;1.25;1.05;;;12.40;63.00;;;10.85;67.66;103076.00;8387320;28;20123;-75
2021/12/16 15:07:33;;;;;;;2.22;1.25;;;12.40;62.90;;;10.79;67.48;103078.72;8387233;28;20092;-75
2021/12/16 15:12:26;;;;;;;1.55;1.15;;;12.30;63.00;;;10.73;67.68;103065.78;8387199;28;20477;-82
2021/12/16 15:17:00;;;;;;;1.95;1.60;;;12.20;63.00;;;10.79;67.89;103094.41;8378008;28;20426;-76
2021/12/16 15:36:17;;;;;;;2.65;1.13;;;12.10;62.90;;;10.40;67.68;103052.44;8354718;28;20031;-76
2021/12/16 15:40:55;;;;;;;2.45;1.50;;;12.00;63.10;;;10.57;68.14;103104.38;8363679;28;20028;-76
2021/12/16 15:45:32;;;;;;;1.90;1.30;;;12.00;63.00;;;10.29;67.95;103072.59;8342784;28;20040;-80
2021/12/16 15:49:55;;;;;;;4.15;1.55;;;11.90;62.90;;;10.51;68.27;103135.84;8344509;28;20033;-76
2021/12/16 15:54:18;;;;;;;1.65;1.30;;;11.90;63.10;;;10.43;67.65;103117.66;8358450;28;20042;-77
2021/12/16 15:58:46;;;;;;;2.75;1.15;;;11.90;63.00;;;10.39;67.66;103142.09;8340707;28;20036;-78
2021/12/16 16:03:10;;;;;;;1.30;1.20;;;11.90;62.90;;;10.35;67.89;103143.91;8352753;28;20718;-77
2021/12/16 16:07:33;;;;;;;5.60;1.50;;;11.80;62.80;;;10.34;67.51;103136.06;8339829;28;20041;-77
2021/12/16 16:11:56;;;;;;;2.75;1.40;;;11.80;62.90;;;10.34;67.72;103139.59;8339746;28;20036;-76
2021/12/16 16:16:25;;;;;;;3.47;1.90;;;11.80;62.90;;;10.30;67.95;103153.56;8336364;28;20025;-74
2021/12/16 16:20:49;;;;;;;3.83;2.63;;;11.70;62.80;;;10.26;67.34;103170.13;8340186;28;20516;-80
2021/12/16 16:25:10;;;;;;;4.63;2.03;;;11.70;62.90;;;10.25;67.89;103171.00;8369466;28;20488;-78
2021/12/16 16:29:35;;;;;;;2.83;2.40;;;11.70;62.90;;;10.12;67.28;103170.31;8356441;28;20035;-76
2021/12/16 16:33:59;;;;;;;2.92;2.08;;;11.60;62.80;;;10.12;67.30;103170.31;8338994;28;20044;-83
2021/12/16 16:38:30;;;;;;;2.45;2.13;;;11.60;62.90;;;10.06;67.58;103162.56;8364074;28;20043;-81
2021/12/16 16:42:53;;;;;;;2.63;1.60;;;11.50;62.90;;;10.06;67.49;103173.00;8340463;28;20556;-78
2021/12/16 16:47:31;;;;;;;2.60;1.88;;;11.50;62.90;;;9.97;67.59;103162.72;8368711;28;20119;-77
2021/12/16 16:51:56;;;;;;;2.60;2.15;;;11.30;62.60;;;9.93;67.71;103168.84;8384524;28;20432;-77
2021/12/16 16:56:47;;;;;;;2.40;1.70;;;11.40;62.80;;;9.89;67.95;103178.47;8363478;28;20032;-77
2021/12/16 17:01:09;;;;;;;3.50;1.83;;;11.30;62.70;;;9.80;67.68;103175.09;8368525;28;20576;-76
2021/12/16 17:05:57;;;;;;;2.08;1.70;;;11.30;62.90;;;9.73;67.63;103180.41;8352497;28;20139;-78
2021/12/16 17:10:31;;;;;;;5.95;2.33;;;11.20;62.70;;;9.75;67.54;103194.28;8379169;28;20031;-78
2021/12/16 17:14:59;;;;;;;3.42;2.80;;;11.20;62.70;;;9.66;67.53;103178.72;8381601;28;20041;-78
2021/12/16 17:19:54;;;;;;;4.57;2.35;;;11.10;62.70;;;9.60;67.40;103185.78;9210665;22;20402;-86
2021/12/16 17:24:28;;;;;;;4.07;2.17;;;11.00;62.50;;;9.54;67.76;103186.72;8406256;28;20052;-85
2021/12/16 17:29:18;;;;;;;3.42;2.72;;;11.00;62.70;;;9.47;67.48;103185.03;8418911;27;20491;-86
2021/12/16 17:33:40;;;;;;;3.55;2.35;;;10.90;62.70;;;9.42;67.22;103185.09;8370564;28;20042;-85
2021/12/16 17:38:21;;;;;;;2.80;2.25;;;10.90;63.00;;;9.38;67.39;103190.38;8407078;28;20036;-85
2021/12/16 17:42:57;;;;;;;2.47;2.20;;;10.90;63.10;;;9.38;67.51;103186.00;8392366;28;20132;-87
2021/12/16 17:47:25;;;;;;;3.20;2.58;;;10.70;63.70;;;9.28;67.84;103182.63;8395036;28;20164;-86
2021/12/16 17:51:47;;;;;;;3.78;1.92;;;10.80;63.00;;;9.28;67.93;103180.00;8394202;28;20054;-85
2021/12/16 17:56:09;;;;;;;2.92;2.17;;;10.70;63.00;;;9.16;67.47;103179.28;8384506;28;20395;-84
2021/12/16 18:00:38;;;;;;;4.68;2.47;;;10.70;63.20;;;9.17;67.54;103184.47;8400039;28;20036;-85
2021/12/16 18:05:02;;;;;;;3.05;2.40;;;10.60;63.20;;;9.11;67.54;103171.50;8373312;28;20054;-87
2021/12/16 18:09:36;;;;;;;3.67;1.92;;;10.60;63.40;;;9.07;67.58;103185.44;8373410;28;20455;-85
2021/12/16 18:14:09;;;;;;;7.85;2.45;;;10.60;63.50;;;9.06;67.73;103191.53;8376528;28;20032;-90
2021/12/16 18:18:32;;;;;;;4.15;2.25;;;10.60;63.60;;;9.01;67.49;103188.09;8403707;28;20021;-89
2021/12/16 18:22:59;;;;;;;5.38;2.05;;;10.50;63.70;;;8.96;67.93;103208.13;8392838;28;20044;-88
2021/12/16 18:27:43;;;;;;;4.00;2.28;;;10.50;63.70;;;8.98;67.74;103215.06;8383365;28;20035;-88
2021/12/16 18:32:05;;;;;;;2.92;2.00;;;10.40;63.80;;;8.86;67.58;103187.38;8368438;28;20037;-88
2021/12/16 18:36:34;;;;;;;3.20;2.35;;;10.40;63.90;;;8.92;68.10;103198.63;8359000;28;20043;-89
2021/12/16 18:41:03;;;;;;;3.33;2.55;;;10.40;64.00;;;8.82;68.05;103195.22;8380490;28;20046;-91
2021/12/16 18:45:27;;;;;;;4.22;2.28;;;10.30;64.00;;;8.86;67.92;103229.06;8394364;28;20058;-89
2021/12/16 18:49:54;;;;;;;2.88;2.53;;;10.30;64.00;;;8.79;67.52;103219.56;8378756;28;20074;-89
2021/12/16 18:54:29;;;;;;;3.47;2.25;;;10.30;64.10;;;8.79;67.68;103219.56;8395008;28;20036;-90
2021/12/16 18:58:55;;;;;;;3.35;2.45;;;10.30;64.00;;;8.79;68.22;103221.28;8389916;28;20046;-89
2021/12/16 19:03:19;;;;;;;3.97;3.58;;;10.20;64.00;;;8.77;67.63;103220.44;8376963;28;20046;-88
2021/12/16 19:07:41;;;;;;;9.35;6.05;;;10.20;64.00;;;8.71;67.85;103212.69;8396292;28;20029;-90
2021/12/16 19:12:10;;;;;;;7.85;5.05;;;10.20;64.20;;;8.66;68.31;103209.22;8380770;28;20058;-88
2021/12/16 19:16:32;;;;;;;4.78;3.60;;;10.20;64.20;;;8.70;67.89;103227.44;8379247;28;20424;-88
2021/12/16 19:20:55;;;;;;;5.20;3.58;;;10.20;64.20;;;8.65;67.61;103224.00;8384158;28;20044;-90
2021/12/16 19:25:17;;;;;;;3.25;2.75;;;10.10;64.20;;;8.66;67.97;103235.28;8374208;28;20046;-89
2021/12/16 19:29:44;;;;;;;5.78;2.55;;;10.20;64.30;;;8.60;67.68;103220.56;8358895;28;20041;-88
2021/12/16 19:34:09;;;;;;;5.07;2.53;;;10.40;64.50;;;8.56;68.19;103217.13;8398414;28;20051;-89
2021/12/16 19:38:31;;;;;;;3.10;2.28;;;10.10;64.20;;;8.56;67.86;103213.63;8353345;28;20041;-89
2021/12/16 19:42:59;;;;;;;4.75;2.33;;;9.90;64.10;;;8.53;67.74;103219.75;8391521;28;20059;-88
2021/12/16 19:47:21;;;;;;;2.90;2.47;;;10.10;64.30;;;8.51;68.17;103231.06;8390748;28;20038;-88
2021/12/16 19:51:46;;;;;;;3.70;2.42;;;10.20;64.50;;;8.45;68.12;103231.94;8370719;28;20512;-92
2021/12/16 19:56:10;;;;;;;6.05;2.72;;;10.00;64.50;;;8.41;68.21;103231.09;8390417;28;20050;-90
2021/12/16 20:00:40;;;;;;;4.15;2.72;;;10.00;64.60;;;8.40;68.13;103226.75;8383414;28;20399;-92
2021/12/16 20:05:06;;;;;;;3.95;2.17;;;9.90;64.70;;;8.44;68.37;103240.63;8379871;28;20035;-91
2021/12/16 20:09:33;;;;;;;3.10;2.72;;;9.90;64.70;;;8.43;68.23;103243.25;8388562;28;20062;-92
2021/12/16 20:13:56;;;;;;;4.13;2.65;;;9.90;64.70;;;8.40;68.22;103242.38;8376633;28;20415;-91
2021/12/16 20:18:25;;;;;;;4.05;3.30;;;9.90;64.70;;;8.45;68.00;103250.16;8391743;28;20739;-92
2021/12/16 20:22:47;;;;;;;3.15;2.45;;;9.90;64.70;;;8.34;68.24;103228.50;8392267;28;20078;-91
2021/12/16 20:27:16;;;;;;;3.85;2.85;;;9.90;64.80;;;8.47;68.15;103250.16;8367200;28;20519;-90
2021/12/16 20:31:54;;;;;;;4.78;3.00;;;10.00;64.80;;;8.34;68.35;103233.69;8396921;28;20050;-90
2021/12/16 20:36:26;;;;;;;5.32;3.60;;;9.90;64.80;;;8.25;68.31;103208.59;8381027;28;20048;-91
2021/12/16 20:41:00;;;;;;;9.48;3.80;;;10.00;64.90;;;8.37;67.98;103234.56;8374600;28;20516;-90
2021/12/16 20:45:45;;;;;;;5.28;3.17;;;9.90;64.90;;;8.41;68.57;103246.72;8362466;28;20055;-91
2021/12/16 20:50:11;;;;;;;9.07;4.38;;;9.90;64.90;;;8.37;68.47;103234.56;8362762;28;20485;-91
2021/12/16 20:54:37;;;;;;;6.83;3.63;;;9.90;65.00;;;8.36;68.31;103237.16;8380294;28;20075;-91
2021/12/16 20:59:11;;;;;;;6.75;4.32;;;9.90;65.00;;;8.41;68.21;103235.44;8371291;28;20035;-91
2021/12/16 21:03:33;;;;;;;7.63;4.53;;;9.90;65.00;;;8.42;68.27;103229.34;8374610;28;20044;-91
2021/12/16 21:07:55;;;;;;;3.65;3.30;;;10.10;65.10;;;8.41;67.93;103219.81;8382303;28;20044;-90
2021/12/16 21:12:23;;;;;;;7.68;4.70;;;9.90;65.00;;;8.38;68.26;103222.41;8373574;28;20644;-89
2021/12/16 21:16:45;;;;;;;7.05;3.63;;;9.90;65.00;;;8.37;68.49;103226.75;8373572;28;20037;-89
2021/12/16 21:21:10;;;;;;;10.50;4.70;;;9.80;64.90;;;8.41;68.60;103236.28;8371237;28;20028;-90
2021/12/16 21:25:32;;;;;;;8.98;4.38;;;10.00;65.10;;;8.45;68.30;103228.47;8363862;28;20043;-92
2021/12/16 21:29:55;;;;;;;8.15;4.35;;;9.90;65.10;;;8.32;68.55;103194.66;8368225;28;20044;-88